sensor_id;sensor_type;location;lat;lon;timestamp;pressure;altitude;pressure_sealevel;temperature;humidity
6694;BME280;3384;42.628;23.380;2022-08-06T00:02:11;94112.97;;;21.65;100.00
6694;BME280;3384;42.628;23.380;2022-08-06T00:04:38;94122.53;;;21.81;100.00
6694;BME280;3384;42.628;23.380;2022-08-06T00:07:05;94121.38;;;21.52;100.00
6694;BME280;3384;42.628;23.380;2022-08-06T00:09:32;94120.31;;;21.31;100.00
6694;BME280;3384;42.628;23.380;2022-08-06T00:12:00;94118.34;;;20.98;100.00
6694;BME280;3384;42.628;23.380;2022-08-06T00:14:31;94114.66;;;20.87;100.00
6694;BME280;3384;42.628;23.380;2022-08-06T00:16:59;94120.38;;;20.79;100.00
6694;BME280;3384;42.628;23.380;2022-08-06T00:19:26;94119.94;;;20.99;100.00
6694;BME280;3384;42.628;23.380;2022-08-06T00:21:53;94123.91;;;20.83;100.00
6694;BME280;3384;42.628;23.380;2022-08-06T00:24:20;94111.63;;;20.66;100.00
6694;BME280;3384;42.628;23.380;2022-08-06T00:26:47;94116.06;;;20.78;100.00
6694;BME280;3384;42.628;23.380;2022-08-06T00:29:16;94113.78;;;21.06;100.00
6694;BME280;3384;42.628;23.380;2022-08-06T00:31:43;94115.31;;;21.33;100.00
6694;BME280;3384;42.628;23.380;2022-08-06T00:34:09;94116.88;;;21.34;100.00
6694;BME280;3384;42.628;23.380;2022-08-06T00:36:36;94122.75;;;21.36;100.00
6694;BME280;3384;42.628;23.380;2022-08-06T00:39:05;94119.66;;;21.37;100.00
6694;BME280;3384;42.628;23.380;2022-08-06T00:41:32;94115.91;;;21.49;100.00
6694;BME280;3384;42.628;23.380;2022-08-06T00:43:59;94114.47;;;21.62;100.00
6694;BME280;3384;42.628;23.380;2022-08-06T00:46:28;94110.84;;;21.51;100.00
6694;BME280;3384;42.628;23.380;2022-08-06T00:48:55;94115.84;;;21.45;100.00
6694;BME280;3384;42.628;23.380;2022-08-06T00:51:23;94109.84;;;21.33;100.00
6694;BME280;3384;42.628;23.380;2022-08-06T00:53:50;94108.00;;;21.40;100.00
6694;BME280;3384;42.628;23.380;2022-08-06T00:56:17;94120.38;;;21.34;100.00
6694;BME280;3384;42.628;23.380;2022-08-06T00:58:44;94118.69;;;21.23;100.00
6694;BME280;3384;42.628;23.380;2022-08-06T01:01:11;94116.38;;;21.25;100.00
6694;BME280;3384;42.628;23.380;2022-08-06T01:03:39;94118.81;;;21.33;100.00
6694;BME280;3384;42.628;23.380;2022-08-06T01:06:06;94126.06;;;21.22;100.00
6694;BME280;3384;42.628;23.380;2022-08-06T01:08:33;94118.91;;;21.11;100.00
6694;BME280;3384;42.628;23.380;2022-08-06T01:11:00;94118.66;;;21.19;100.00
6694;BME280;3384;42.628;23.380;2022-08-06T01:13:27;94119.41;;;21.20;100.00
6694;BME280;3384;42.628;23.380;2022-08-06T01:16:05;94118.16;;;21.14;100.00
6694;BME280;3384;42.628;23.380;2022-08-06T01:18:41;94112.16;;;21.01;100.00
6694;BME280;3384;42.628;23.380;2022-08-06T01:21:22;94113.41;;;20.81;100.00
6694;BME280;3384;42.628;23.380;2022-08-06T01:24:02;94110.25;;;20.53;100.00
6694;BME280;3384;42.628;23.380;2022-08-06T01:26:40;94113.97;;;20.68;100.00
6694;BME280;3384;42.628;23.380;2022-08-06T01:29:15;94106.72;;;20.75;100.00
6694;BME280;3384;42.628;23.380;2022-08-06T01:31:47;94112.50;;;20.48;100.00
6694;BME280;3384;42.628;23.380;2022-08-06T01:34:20;94117.75;;;20.60;100.00
6694;BME280;3384;42.628;23.380;2022-08-06T01:36:51;94106.63;;;20.72;100.00
6694;BME280;3384;42.628;23.380;2022-08-06T01:39:21;94107.91;;;20.29;100.00
6694;BME280;3384;42.628;23.380;2022-08-06T01:41:52;94097.72;;;20.23;100.00
6694;BME280;3384;42.628;23.380;2022-08-06T01:44:27;94100.31;;;20.16;100.00
6694;BME280;3384;42.628;23.380;2022-08-06T01:46:58;94098.16;;;20.25;100.00
6694;BME280;3384;42.628;23.380;2022-08-06T01:49:29;94105.06;;;20.45;100.00
6694;BME280;3384;42.628;23.380;2022-08-06T01:51:58;94095.03;;;20.49;100.00
6694;BME280;3384;42.628;23.380;2022-08-06T01:54:27;94111.28;;;20.45;100.00
6694;BME280;3384;42.628;23.380;2022-08-06T01:56:57;94101.13;;;20.42;100.00
6694;BME280;3384;42.628;23.380;2022-08-06T01:59:30;94101.44;;;20.37;100.00
6694;BME280;3384;42.628;23.380;2022-08-06T02:02:00;94096.78;;;20.15;100.00
6694;BME280;3384;42.628;23.380;2022-08-06T02:04:33;94100.03;;;20.21;100.00
6694;BME280;3384;42.628;23.380;2022-08-06T02:07:03;94101.09;;;20.65;100.00
6694;BME280;3384;42.628;23.380;2022-08-06T02:09:33;94095.38;;;20.73;100.00
6694;BME280;3384;42.628;23.380;2022-08-06T02:12:04;94094.44;;;20.62;100.00
6694;BME280;3384;42.628;23.380;2022-08-06T02:14:39;94087.16;;;20.70;100.00
6694;BME280;3384;42.628;23.380;2022-08-06T02:17:08;94082.75;;;20.88;100.00
6694;BME280;3384;42.628;23.380;2022-08-06T02:19:36;94088.13;;;20.84;100.00
6694;BME280;3384;42.628;23.380;2022-08-06T02:22:05;94075.28;;;20.81;100.00
6694;BME280;3384;42.628;23.380;2022-08-06T02:24:34;94086.75;;;20.94;100.00
6694;BME280;3384;42.628;23.380;2022-08-06T02:27:03;94082.88;;;20.95;100.00
6694;BME280;3384;42.628;23.380;2022-08-06T02:29:31;94074.69;;;20.95;100.00
6694;BME280;3384;42.628;23.380;2022-08-06T02:32:00;94066.63;;;21.02;100.00
6694;BME280;3384;42.628;23.380;2022-08-06T02:34:27;94088.84;;;21.04;100.00
6694;BME280;3384;42.628;23.380;2022-08-06T02:36:57;94074.53;;;21.14;100.00
6694;BME280;3384;42.628;23.380;2022-08-06T02:39:27;94083.94;;;21.16;100.00
6694;BME280;3384;42.628;23.380;2022-08-06T02:42:01;94078.44;;;21.13;100.00
6694;BME280;3384;42.628;23.380;2022-08-06T02:44:37;94058.44;;;21.02;100.00
6694;BME280;3384;42.628;23.380;2022-08-06T02:47:11;94079.25;;;21.17;100.00
6694;BME280;3384;42.628;23.380;2022-08-06T02:49:43;94082.16;;;21.31;100.00
6694;BME280;3384;42.628;23.380;2022-08-06T02:52:14;94084.44;;;20.96;100.00
6694;BME280;3384;42.628;23.380;2022-08-06T02:54:46;94081.84;;;20.80;100.00
6694;BME280;3384;42.628;23.380;2022-08-06T02:57:20;94090.09;;;20.84;100.00
6694;BME280;3384;42.628;23.380;2022-08-06T02:59:52;94079.53;;;20.53;100.00
6694;BME280;3384;42.628;23.380;2022-08-06T03:02:23;94101.56;;;20.44;100.00
6694;BME280;3384;42.628;23.380;2022-08-06T03:04:52;94093.97;;;20.57;100.00
6694;BME280;3384;42.628;23.380;2022-08-06T03:07:20;94111.63;;;20.66;100.00
6694;BME280;3384;42.628;23.380;2022-08-06T03:09:50;94092.78;;;20.54;100.00
6694;BME280;3384;42.628;23.380;2022-08-06T03:12:19;94113.97;;;20.68;100.00
6694;BME280;3384;42.628;23.380;2022-08-06T03:14:48;94100.25;;;20.61;100.00
6694;BME280;3384;42.628;23.380;2022-08-06T03:17:16;94094.50;;;20.66;100.00
6694;BME280;3384;42.628;23.380;2022-08-06T03:19:45;94102.34;;;20.71;100.00
6694;BME280;3384;42.628;23.380;2022-08-06T03:22:14;94104.75;;;20.76;100.00
6694;BME280;3384;42.628;23.380;2022-08-06T03:24:43;94103.97;;;20.75;100.00
6694;BME280;3384;42.628;23.380;2022-08-06T03:27:12;94116.28;;;20.66;100.00
6694;BME280;3384;42.628;23.380;2022-08-06T03:29:42;94109.22;;;20.61;100.00
6694;BME280;3384;42.628;23.380;2022-08-06T03:32:11;94108.06;;;20.62;100.00
6694;BME280;3384;42.628;23.380;2022-08-06T03:34:39;94106.97;;;20.67;100.00
6694;BME280;3384;42.628;23.380;2022-08-06T03:37:09;94100.06;;;20.73;100.00
6694;BME280;3384;42.628;23.380;2022-08-06T03:39:38;94099.31;;;20.76;100.00
6694;BME280;3384;42.628;23.380;2022-08-06T03:42:07;94105.44;;;20.43;100.00
6694;BME280;3384;42.628;23.380;2022-08-06T03:44:35;94119.94;;;20.51;100.00
6694;BME280;3384;42.628;23.380;2022-08-06T03:47:05;94119.53;;;20.49;100.00
6694;BME280;3384;42.628;23.380;2022-08-06T03:49:36;94119.81;;;20.44;100.00
6694;BME280;3384;42.628;23.380;2022-08-06T03:52:05;94091.06;;;20.46;100.00
6694;BME280;3384;42.628;23.380;2022-08-06T03:54:38;94105.56;;;20.50;100.00
6694;BME280;3384;42.628;23.380;2022-08-06T03:57:11;94127.69;;;20.49;100.00
6694;BME280;3384;42.628;23.380;2022-08-06T03:59:41;94099.38;;;20.31;100.00
6694;BME280;3384;42.628;23.380;2022-08-06T04:02:09;94105.41;;;20.17;100.00
6694;BME280;3384;42.628;23.380;2022-08-06T04:04:37;94103.16;;;20.23;100.00
6694;BME280;3384;42.628;23.380;2022-08-06T04:07:05;94128.69;;;20.37;100.00
6694;BME280;3384;42.628;23.380;2022-08-06T04:09:33;94115.06;;;20.37;100.00
6694;BME280;3384;42.628;23.380;2022-08-06T04:12:02;94112.72;;;20.36;100.00
6694;BME280;3384;42.628;23.380;2022-08-06T04:14:30;94114.59;;;20.32;100.00
6694;BME280;3384;42.628;23.380;2022-08-06T04:16:58;94114.94;;;20.30;100.00
6694;BME280;3384;42.628;23.380;2022-08-06T04:19:26;94142.09;;;20.27;100.00
6694;BME280;3384;42.628;23.380;2022-08-06T04:21:53;94135.78;;;20.19;100.00
6694;BME280;3384;42.628;23.380;2022-08-06T04:24:20;94142.91;;;20.27;100.00
6694;BME280;3384;42.628;23.380;2022-08-06T04:26:50;94116.59;;;20.35;100.00
6694;BME280;3384;42.628;23.380;2022-08-06T04:29:21;94121.16;;;20.31;100.00
6694;BME280;3384;42.628;23.380;2022-08-06T04:31:49;94132.41;;;20.29;100.00
6694;BME280;3384;42.628;23.380;2022-08-06T04:34:21;94126.06;;;20.44;100.00
6694;BME280;3384;42.628;23.380;2022-08-06T04:36:50;94146.50;;;20.57;100.00
6694;BME280;3384;42.628;23.380;2022-08-06T04:39:18;94146.44;;;20.54;100.00
6694;BME280;3384;42.628;23.380;2022-08-06T04:41:47;94137.44;;;20.50;100.00
6694;BME280;3384;42.628;23.380;2022-08-06T04:44:14;94128.31;;;20.65;100.00
6694;BME280;3384;42.628;23.380;2022-08-06T04:46:43;94137.50;;;20.79;100.00
6694;BME280;3384;42.628;23.380;2022-08-06T04:49:14;94132.84;;;20.80;100.00
6694;BME280;3384;42.628;23.380;2022-08-06T04:51:41;94125.97;;;20.89;100.00
6694;BME280;3384;42.628;23.380;2022-08-06T04:54:11;94141.75;;;21.03;100.00
6694;BME280;3384;42.628;23.380;2022-08-06T04:56:39;94130.22;;;21.13;100.00
6694;BME280;3384;42.628;23.380;2022-08-06T04:59:06;94130.75;;;20.96;100.00
6694;BME280;3384;42.628;23.380;2022-08-06T05:01:33;94141.03;;;21.06;100.00
6694;BME280;3384;42.628;23.380;2022-08-06T05:04:01;94148.56;;;21.16;100.00
6694;BME280;3384;42.628;23.380;2022-08-06T05:06:35;94168.03;;;20.92;100.00
6694;BME280;3384;42.628;23.380;2022-08-06T05:09:08;94156.69;;;21.12;100.00
6694;BME280;3384;42.628;23.380;2022-08-06T05:11:37;94152.34;;;21.08;100.00
6694;BME280;3384;42.628;23.380;2022-08-06T05:14:09;94162.13;;;21.12;100.00
6694;BME280;3384;42.628;23.380;2022-08-06T05:16:39;94154.38;;;21.14;100.00
6694;BME280;3384;42.628;23.380;2022-08-06T05:19:11;94150.84;;;21.40;100.00
6694;BME280;3384;42.628;23.380;2022-08-06T05:21:39;94156.28;;;21.40;100.00
6694;BME280;3384;42.628;23.380;2022-08-06T05:24:07;94158.09;;;21.29;100.00
6694;BME280;3384;42.628;23.380;2022-08-06T05:26:34;94146.84;;;21.34;100.00
6694;BME280;3384;42.628;23.380;2022-08-06T05:29:01;94148.28;;;21.54;100.00
6694;BME280;3384;42.628;23.380;2022-08-06T05:31:30;94157.50;;;21.72;100.00
6694;BME280;3384;42.628;23.380;2022-08-06T05:33:57;94152.66;;;21.62;100.00
6694;BME280;3384;42.628;23.380;2022-08-06T05:36:25;94157.53;;;21.76;100.00
6694;BME280;3384;42.628;23.380;2022-08-06T05:38:52;94157.53;;;21.76;100.00
6694;BME280;3384;42.628;23.380;2022-08-06T05:41:19;94143.72;;;21.95;100.00
6694;BME280;3384;42.628;23.380;2022-08-06T05:43:46;94156.19;;;21.96;100.00
6694;BME280;3384;42.628;23.380;2022-08-06T05:46:15;94145.69;;;21.98;100.00
6694;BME280;3384;42.628;23.380;2022-08-06T05:48:46;94151.66;;;22.10;100.00
6694;BME280;3384;42.628;23.380;2022-08-06T05:51:19;94161.13;;;22.20;100.00
6694;BME280;3384;42.628;23.380;2022-08-06T05:53:53;94162.56;;;22.07;100.00
6694;BME280;3384;42.628;23.380;2022-08-06T05:56:25;94151.66;;;22.10;100.00
6694;BME280;3384;42.628;23.380;2022-08-06T05:58:56;94143.19;;;22.19;100.00
6694;BME280;3384;42.628;23.380;2022-08-06T06:01:24;94150.56;;;22.18;100.00
6694;BME280;3384;42.628;23.380;2022-08-06T06:03:53;94146.34;;;22.24;100.00
6694;BME280;3384;42.628;23.380;2022-08-06T06:06:23;94146.00;;;22.29;100.00
6694;BME280;3384;42.628;23.380;2022-08-06T06:08:52;94152.66;;;22.32;100.00
6694;BME280;3384;42.628;23.380;2022-08-06T06:11:19;94143.44;;;22.47;100.00
6694;BME280;3384;42.628;23.380;2022-08-06T06:13:47;94148.22;;;22.53;100.00
6694;BME280;3384;42.628;23.380;2022-08-06T06:16:22;94148.28;;;22.64;100.00
6694;BME280;3384;42.628;23.380;2022-08-06T06:18:58;94155.03;;;22.77;100.00
6694;BME280;3384;42.628;23.380;2022-08-06T06:21:34;94137.84;;;22.76;100.00
6694;BME280;3384;42.628;23.380;2022-08-06T06:24:11;94140.13;;;22.67;100.00
6694;BME280;3384;42.628;23.380;2022-08-06T06:26:45;94152.41;;;22.91;100.00
6694;BME280;3384;42.628;23.380;2022-08-06T06:29:18;94139.88;;;22.86;100.00
6694;BME280;3384;42.628;23.380;2022-08-06T06:31:54;94133.84;;;23.21;100.00
6694;BME280;3384;42.628;23.380;2022-08-06T06:34:33;94149.06;;;23.18;100.00
6694;BME280;3384;42.628;23.380;2022-08-06T06:37:10;94140.09;;;23.18;100.00
6694;BME280;3384;42.628;23.380;2022-08-06T06:39:52;94135.47;;;23.29;100.00
6694;BME280;3384;42.628;23.380;2022-08-06T06:42:25;94126.16;;;23.44;100.00
6694;BME280;3384;42.628;23.380;2022-08-06T06:45:01;94123.84;;;23.46;100.00
6694;BME280;3384;42.628;23.380;2022-08-06T06:47:34;94124.31;;;23.65;100.00
6694;BME280;3384;42.628;23.380;2022-08-06T06:50:06;94122.28;;;23.48;100.00
6694;BME280;3384;42.628;23.380;2022-08-06T06:52:39;94123.16;;;23.73;100.00
6694;BME280;3384;42.628;23.380;2022-08-06T06:55:12;94122.03;;;23.81;100.00
6694;BME280;3384;42.628;23.380;2022-08-06T06:57:43;94109.97;;;23.96;100.00
6694;BME280;3384;42.628;23.380;2022-08-06T07:00:12;94122.53;;;24.08;100.00
6694;BME280;3384;42.628;23.380;2022-08-06T07:02:41;94110.38;;;24.02;100.00
6694;BME280;3384;42.628;23.380;2022-08-06T07:05:09;94113.50;;;24.08;100.00
6694;BME280;3384;42.628;23.380;2022-08-06T07:07:39;94110.03;;;24.25;97.92
6694;BME280;3384;42.628;23.380;2022-08-06T07:10:11;94115.91;;;24.58;93.41
6694;BME280;3384;42.628;23.380;2022-08-06T07:12:40;94115.13;;;24.40;94.24
6694;BME280;3384;42.628;23.380;2022-08-06T07:15:09;94093.22;;;24.51;91.50
6694;BME280;3384;42.628;23.380;2022-08-06T07:17:38;94098.69;;;24.54;89.61
6694;BME280;3384;42.628;23.380;2022-08-06T07:20:08;94106.13;;;24.85;87.61
6694;BME280;3384;42.628;23.380;2022-08-06T07:22:39;94121.00;;;24.88;87.86
6694;BME280;3384;42.628;23.380;2022-08-06T07:25:11;94117.88;;;25.00;89.31
6694;BME280;3384;42.628;23.380;2022-08-06T07:27:41;94088.09;;;24.98;87.84
6694;BME280;3384;42.628;23.380;2022-08-06T07:30:10;94095.94;;;25.07;87.12
6694;BME280;3384;42.628;23.380;2022-08-06T07:32:38;94119.41;;;25.22;85.55
6694;BME280;3384;42.628;23.380;2022-08-06T07:35:08;94097.41;;;25.43;83.33
6694;BME280;3384;42.628;23.380;2022-08-06T07:37:35;94104.94;;;25.04;86.07
6694;BME280;3384;42.628;23.380;2022-08-06T07:40:06;94081.81;;;25.05;86.54
6694;BME280;3384;42.628;23.380;2022-08-06T07:42:36;94090.81;;;25.12;85.27
6694;BME280;3384;42.628;23.380;2022-08-06T07:45:05;94095.88;;;25.35;84.52
6694;BME280;3384;42.628;23.380;2022-08-06T07:47:37;94087.97;;;25.51;83.44
6694;BME280;3384;42.628;23.380;2022-08-06T07:50:05;94092.69;;;25.47;83.83
6694;BME280;3384;42.628;23.380;2022-08-06T07:52:34;94087.50;;;25.70;81.78
6694;BME280;3384;42.628;23.380;2022-08-06T07:55:01;94103.16;;;25.76;82.25
6694;BME280;3384;42.628;23.380;2022-08-06T07:57:28;94084.75;;;25.66;81.52
6694;BME280;3384;42.628;23.380;2022-08-06T07:59:58;94105.38;;;26.06;78.95
6694;BME280;3384;42.628;23.380;2022-08-06T08:02:25;94099.13;;;26.05;79.17
6694;BME280;3384;42.628;23.380;2022-08-06T08:04:52;94075.25;;;25.85;80.32
6694;BME280;3384;42.628;23.380;2022-08-06T08:07:37;94084.13;;;26.17;79.57
6694;BME280;3384;42.628;23.380;2022-08-06T08:10:05;94078.34;;;25.97;79.13
6694;BME280;3384;42.628;23.380;2022-08-06T08:12:32;94079.41;;;26.21;77.48
6694;BME280;3384;42.628;23.380;2022-08-06T08:15:02;94084.53;;;26.12;77.40
6694;BME280;3384;42.628;23.380;2022-08-06T08:17:29;94087.34;;;26.05;77.14
6694;BME280;3384;42.628;23.380;2022-08-06T08:20:02;94096.25;;;26.23;77.21
6694;BME280;3384;42.628;23.380;2022-08-06T08:22:29;94091.50;;;26.30;75.69
6694;BME280;3384;42.628;23.380;2022-08-06T08:24:56;94094.59;;;26.36;76.41
6694;BME280;3384;42.628;23.380;2022-08-06T08:27:23;94089.84;;;26.40;74.47
6694;BME280;3384;42.628;23.380;2022-08-06T08:29:50;94087.78;;;26.54;73.88
6694;BME280;3384;42.628;23.380;2022-08-06T08:32:19;94081.31;;;26.79;72.95
6694;BME280;3384;42.628;23.380;2022-08-06T08:34:47;94076.09;;;26.88;71.60
6694;BME280;3384;42.628;23.380;2022-08-06T08:37:14;94085.63;;;27.20;70.64
6694;BME280;3384;42.628;23.380;2022-08-06T08:39:41;94082.59;;;27.08;68.48
6694;BME280;3384;42.628;23.380;2022-08-06T08:42:10;94077.16;;;27.01;68.18
6694;BME280;3384;42.628;23.380;2022-08-06T08:44:40;94097.97;;;27.05;67.17
6694;BME280;3384;42.628;23.380;2022-08-06T08:47:08;94095.06;;;27.19;67.17
6694;BME280;3384;42.628;23.380;2022-08-06T08:49:39;94076.09;;;27.32;65.61
6694;BME280;3384;42.628;23.380;2022-08-06T08:52:08;94088.25;;;27.34;64.15
6694;BME280;3384;42.628;23.380;2022-08-06T08:54:36;94082.06;;;27.27;65.37
6694;BME280;3384;42.628;23.380;2022-08-06T08:57:07;94077.13;;;27.45;64.31
6694;BME280;3384;42.628;23.380;2022-08-06T08:59:35;94087.56;;;27.60;63.58
6694;BME280;3384;42.628;23.380;2022-08-06T09:02:04;94068.13;;;27.71;63.44
6694;BME280;3384;42.628;23.380;2022-08-06T09:04:32;94090.97;;;27.71;63.49
6694;BME280;3384;42.628;23.380;2022-08-06T09:07:01;94078.91;;;27.58;63.10
6694;BME280;3384;42.628;23.380;2022-08-06T09:09:28;94073.56;;;27.48;62.67
6694;BME280;3384;42.628;23.380;2022-08-06T09:11:57;94081.66;;;27.58;61.72
6694;BME280;3384;42.628;23.380;2022-08-06T09:14:24;94089.25;;;27.81;61.39
6694;BME280;3384;42.628;23.380;2022-08-06T09:16:51;94086.72;;;27.97;60.95
6694;BME280;3384;42.628;23.380;2022-08-06T09:19:18;94058.38;;;27.96;61.99
6694;BME280;3384;42.628;23.380;2022-08-06T09:21:46;94085.00;;;28.06;59.22
6694;BME280;3384;42.628;23.380;2022-08-06T09:24:14;94047.13;;;28.14;56.74
6694;BME280;3384;42.628;23.380;2022-08-06T09:27:01;94054.88;;;28.22;55.93
6694;BME280;3384;42.628;23.380;2022-08-06T09:29:29;94075.38;;;28.21;56.45
6694;BME280;3384;42.628;23.380;2022-08-06T09:31:56;94048.41;;;28.32;56.10
6694;BME280;3384;42.628;23.380;2022-08-06T09:34:31;94063.25;;;28.15;56.83
6694;BME280;3384;42.628;23.380;2022-08-06T09:36:58;94052.13;;;28.22;56.24
6694;BME280;3384;42.628;23.380;2022-08-06T09:39:34;94046.84;;;28.31;56.30
6694;BME280;3384;42.628;23.380;2022-08-06T09:42:05;94048.66;;;28.41;56.18
6694;BME280;3384;42.628;23.380;2022-08-06T09:44:32;94045.47;;;28.69;56.62
6694;BME280;3384;42.628;23.380;2022-08-06T09:46:59;94049.63;;;28.58;56.32
6694;BME280;3384;42.628;23.380;2022-08-06T09:49:43;94060.16;;;28.63;56.62
6694;BME280;3384;42.628;23.380;2022-08-06T09:52:14;94045.09;;;28.44;55.23
6694;BME280;3384;42.628;23.380;2022-08-06T09:54:42;94049.16;;;28.59;54.58
6694;BME280;3384;42.628;23.380;2022-08-06T09:57:10;94049.72;;;28.74;53.70
6694;BME280;3384;42.628;23.380;2022-08-06T09:59:44;94041.69;;;28.60;54.74
6694;BME280;3384;42.628;23.380;2022-08-06T10:02:12;94056.38;;;28.76;52.04
6694;BME280;3384;42.628;23.380;2022-08-06T10:04:40;94052.47;;;28.74;52.44
6694;BME280;3384;42.628;23.380;2022-08-06T10:07:07;94038.28;;;28.75;52.40
6694;BME280;3384;42.628;23.380;2022-08-06T10:09:35;94040.44;;;28.87;52.29
6694;BME280;3384;42.628;23.380;2022-08-06T10:12:16;94022.97;;;28.71;52.79
6694;BME280;3384;42.628;23.380;2022-08-06T10:14:43;94049.56;;;28.84;53.48
6694;BME280;3384;42.628;23.380;2022-08-06T10:17:11;94017.38;;;28.97;51.79
6694;BME280;3384;42.628;23.380;2022-08-06T10:19:41;94022.31;;;28.86;53.41
6694;BME280;3384;42.628;23.380;2022-08-06T10:22:10;94038.94;;;28.83;53.99
6694;BME280;3384;42.628;23.380;2022-08-06T10:24:40;94025.91;;;29.07;52.06
6694;BME280;3384;42.628;23.380;2022-08-06T10:27:10;94018.56;;;29.20;51.52
6694;BME280;3384;42.628;23.380;2022-08-06T10:29:40;94021.03;;;29.14;50.77
6694;BME280;3384;42.628;23.380;2022-08-06T10:32:15;94019.00;;;29.18;51.14
6694;BME280;3384;42.628;23.380;2022-08-06T10:34:44;94026.34;;;29.05;50.38
6694;BME280;3384;42.628;23.380;2022-08-06T10:37:16;94028.91;;;29.16;49.82
6694;BME280;3384;42.628;23.380;2022-08-06T10:39:47;94005.47;;;29.00;49.94
6694;BME280;3384;42.628;23.380;2022-08-06T10:42:17;94024.88;;;28.97;49.43
6694;BME280;3384;42.628;23.380;2022-08-06T10:44:45;94012.47;;;29.09;49.76
6694;BME280;3384;42.628;23.380;2022-08-06T10:47:12;94021.53;;;29.29;49.08
6694;BME280;3384;42.628;23.380;2022-08-06T10:49:39;93997.59;;;29.42;48.86
6694;BME280;3384;42.628;23.380;2022-08-06T10:52:06;94017.88;;;29.35;48.49
6694;BME280;3384;42.628;23.380;2022-08-06T10:54:35;93994.22;;;29.54;47.93
6694;BME280;3384;42.628;23.380;2022-08-06T10:57:02;94013.13;;;29.55;48.84
6694;BME280;3384;42.628;23.380;2022-08-06T10:59:31;94010.56;;;29.64;48.66
6694;BME280;3384;42.628;23.380;2022-08-06T11:02:03;93988.97;;;29.40;50.13
6694;BME280;3384;42.628;23.380;2022-08-06T11:04:40;94000.50;;;29.54;50.21
6694;BME280;3384;42.628;23.380;2022-08-06T11:07:41;94009.66;;;29.71;48.90
6694;BME280;3384;42.628;23.380;2022-08-06T11:10:30;93991.44;;;29.54;48.34
6694;BME280;3384;42.628;23.380;2022-08-06T11:13:09;94013.19;;;29.52;47.55
6694;BME280;3384;42.628;23.380;2022-08-06T11:15:40;93998.88;;;29.57;47.80
6694;BME280;3384;42.628;23.380;2022-08-06T11:18:09;93989.84;;;29.17;48.73
6694;BME280;3384;42.628;23.380;2022-08-06T11:20:39;93979.84;;;29.23;48.71
6694;BME280;3384;42.628;23.380;2022-08-06T11:23:29;94000.16;;;29.52;48.25
6694;BME280;3384;42.628;23.380;2022-08-06T11:25:57;93980.41;;;29.54;48.38
6694;BME280;3384;42.628;23.380;2022-08-06T11:28:56;93992.56;;;29.76;47.14
6694;BME280;3384;42.628;23.380;2022-08-06T11:31:33;93990.53;;;29.41;49.20
6694;BME280;3384;42.628;23.380;2022-08-06T11:34:02;94006.09;;;29.51;47.03
6694;BME280;3384;42.628;23.380;2022-08-06T11:36:43;94002.38;;;29.61;46.70
6694;BME280;3384;42.628;23.380;2022-08-06T11:39:10;93993.41;;;29.53;45.17
6694;BME280;3384;42.628;23.380;2022-08-06T11:41:47;93989.22;;;29.84;45.39
6694;BME280;3384;42.628;23.380;2022-08-06T11:44:15;93984.22;;;29.79;46.47
6694;BME280;3384;42.628;23.380;2022-08-06T11:46:46;93993.19;;;29.83;45.72
6694;BME280;3384;42.628;23.380;2022-08-06T11:49:21;93983.22;;;29.70;46.87
6694;BME280;3384;42.628;23.380;2022-08-06T11:51:50;93983.66;;;29.68;46.69
6694;BME280;3384;42.628;23.380;2022-08-06T11:54:20;94000.22;;;29.68;47.71
6694;BME280;3384;42.628;23.380;2022-08-06T11:57:21;93993.84;;;29.71;47.80
6694;BME280;3384;42.628;23.380;2022-08-06T12:00:13;94019.56;;;29.49;47.87
6694;BME280;3384;42.628;23.380;2022-08-06T12:02:53;94006.41;;;29.37;47.69
6694;BME280;3384;42.628;23.380;2022-08-06T12:05:40;93990.53;;;29.41;48.09
6694;BME280;3384;42.628;23.380;2022-08-06T12:08:24;93992.22;;;29.54;48.24
6694;BME280;3384;42.628;23.380;2022-08-06T12:11:23;93981.53;;;29.56;47.60
6694;BME280;3384;42.628;23.380;2022-08-06T12:13:51;94001.72;;;29.53;46.86
6694;BME280;3384;42.628;23.380;2022-08-06T12:16:32;93981.81;;;29.62;45.19
6694;BME280;3384;42.628;23.380;2022-08-06T12:19:01;93978.41;;;29.54;46.02
6694;BME280;3384;42.628;23.380;2022-08-06T12:21:29;93967.50;;;29.67;45.91
6694;BME280;3384;42.628;23.380;2022-08-06T12:23:57;94003.91;;;29.42;47.82
6694;BME280;3384;42.628;23.380;2022-08-06T12:26:29;93993.94;;;29.68;47.69
6694;BME280;3384;42.628;23.380;2022-08-06T12:29:00;93967.91;;;29.85;47.24
6694;BME280;3384;42.628;23.380;2022-08-06T12:31:28;93972.31;;;29.98;46.56
6694;BME280;3384;42.628;23.380;2022-08-06T12:33:56;93953.47;;;29.77;48.09
6694;BME280;3384;42.628;23.380;2022-08-06T12:36:29;93990.47;;;29.64;47.62
6694;BME280;3384;42.628;23.380;2022-08-06T12:38:58;93978.22;;;29.81;47.20
6694;BME280;3384;42.628;23.380;2022-08-06T12:41:39;93968.59;;;29.89;46.96
6694;BME280;3384;42.628;23.380;2022-08-06T12:44:08;93945.28;;;29.90;46.52
6694;BME280;3384;42.628;23.380;2022-08-06T12:46:35;93956.19;;;30.13;45.57
6694;BME280;3384;42.628;23.380;2022-08-06T12:49:03;93967.91;;;30.01;45.37
6694;BME280;3384;42.628;23.380;2022-08-06T12:51:31;93961.69;;;29.97;46.25
6694;BME280;3384;42.628;23.380;2022-08-06T12:54:04;93951.31;;;30.01;45.52
6694;BME280;3384;42.628;23.380;2022-08-06T12:56:39;93960.47;;;29.98;46.74
6694;BME280;3384;42.628;23.380;2022-08-06T12:59:09;93955.31;;;30.00;46.28
6694;BME280;3384;42.628;23.380;2022-08-06T13:01:37;93946.56;;;29.85;46.29
6694;BME280;3384;42.628;23.380;2022-08-06T13:04:07;93947.16;;;29.77;46.38
6694;BME280;3384;42.628;23.380;2022-08-06T13:06:39;93972.88;;;29.74;46.43
6694;BME280;3384;42.628;23.380;2022-08-06T13:09:06;93956.81;;;29.69;46.49
6694;BME280;3384;42.628;23.380;2022-08-06T13:11:34;93947.31;;;29.70;46.65
6694;BME280;3384;42.628;23.380;2022-08-06T13:14:10;93948.88;;;29.71;46.89
6694;BME280;3384;42.628;23.380;2022-08-06T13:16:39;93950.53;;;29.84;46.40
6694;BME280;3384;42.628;23.380;2022-08-06T13:19:08;93952.72;;;29.93;46.35
6694;BME280;3384;42.628;23.380;2022-08-06T13:21:36;93946.50;;;29.89;46.46
6694;BME280;3384;42.628;23.380;2022-08-06T13:24:07;93953.16;;;30.07;46.44